createdAt,value
2022-08-29T00:01:12.326Z,102287.38
2022-08-29T00:03:40.896Z,102287.38
2022-08-29T00:06:08.150Z,102285.63
2022-08-29T00:08:35.065Z,102290.97
2022-08-29T00:11:02.081Z,102287.53
2022-08-29T00:13:29.386Z,102284.00
2022-08-29T00:15:56.548Z,102288.44
2022-08-29T00:18:23.471Z,102282.19
2022-08-29T00:20:51.381Z,102284.09
2022-08-29T00:23:18.385Z,102284.91
2022-08-29T00:25:45.911Z,102283.22
2022-08-29T00:28:13.096Z,102289.47
2022-08-29T00:30:40.678Z,102282.34
2022-08-29T00:33:08.305Z,102286.81
2022-08-29T00:35:38.023Z,102285.94
2022-08-29T00:38:07.240Z,102285.94
2022-08-29T00:40:39.051Z,102291.25
2022-08-29T00:43:06.984Z,102283.28
2022-08-29T00:45:34.522Z,102285.94
2022-08-29T00:48:07.872Z,102287.72
2022-08-29T00:50:40.936Z,102282.50
2022-08-29T00:53:14.022Z,102281.63
2022-08-29T00:55:41.470Z,102279.91
2022-08-29T00:58:14.470Z,102282.50
2022-08-29T01:00:43.184Z,102284.38
2022-08-29T01:03:10.449Z,102282.63
2022-08-29T01:05:37.804Z,102280.84
2022-08-29T01:08:06.567Z,102285.31
2022-08-29T01:10:53.564Z,102286.16
2022-08-29T01:13:25.377Z,102287.19
2022-08-29T01:15:53.052Z,102280.06
2022-08-29T01:18:21.190Z,102285.38
2022-08-29T01:21:21.145Z,102288.09
2022-08-29T01:23:59.655Z,102281.06
2022-08-29T01:26:28.894Z,102291.63
2022-08-29T01:28:56.672Z,102287.31
2022-08-29T01:31:57.215Z,102285.53
2022-08-29T01:34:27.860Z,102293.59
2022-08-29T01:37:00.863Z,102290.91
2022-08-29T01:39:31.889Z,102283.88
2022-08-29T01:42:00.227Z,102295.47
2022-08-29T01:44:27.190Z,102301.66
2022-08-29T01:47:01.784Z,102297.22
2022-08-29T01:49:30.049Z,102292.81
2022-08-29T01:51:57.044Z,102291.09
2022-08-29T01:54:23.917Z,102290.13
2022-08-29T01:56:53.026Z,102293.75
2022-08-29T01:59:23.891Z,102290.22
2022-08-29T02:02:03.929Z,102290.28
2022-08-29T02:04:31.583Z,102297.34
2022-08-29T02:06:58.970Z,102294.69
2022-08-29T02:09:27.173Z,102293.91
2022-08-29T02:11:55.310Z,102298.28
2022-08-29T02:14:23.799Z,102300.09
2022-08-29T02:16:51.212Z,102291.16
2022-08-29T02:19:18.475Z,102285.81
2022-08-29T02:21:45.809Z,102293.03
2022-08-29T02:24:25.415Z,102293.91
2022-08-29T02:26:54.769Z,102291.25
2022-08-29T02:29:22.571Z,102290.28
2022-08-29T02:31:49.556Z,102291.25
2022-08-29T02:34:17.235Z,102286.84
2022-08-29T02:36:44.626Z,102289.59
2022-08-29T02:39:13.015Z,102285.09
2022-08-29T02:41:39.992Z,102288.72
2022-08-29T02:44:11.256Z,102286.97
2022-08-29T02:46:38.243Z,102285.28
2022-08-29T02:49:05.555Z,102283.53
2022-08-29T02:51:33.765Z,102278.22
2022-08-29T02:54:02.000Z,102277.34
2022-08-29T02:56:30.102Z,102286.19
2022-08-29T02:58:57.926Z,102280.09
2022-08-29T03:01:26.413Z,102285.41
2022-08-29T03:03:53.919Z,102287.13
2022-08-29T03:06:21.510Z,102285.47
2022-08-29T03:08:48.418Z,102289.00
2022-08-29T03:11:17.469Z,102282.81
2022-08-29T03:13:45.744Z,102276.63
2022-08-29T03:16:13.804Z,102285.56
2022-08-29T03:18:41.074Z,102289.09
2022-08-29T03:21:25.242Z,102283.81
2022-08-29T03:23:53.349Z,102282.13
2022-08-29T03:26:20.367Z,102270.59
2022-08-29T03:28:47.703Z,102276.69
2022-08-29T03:31:14.843Z,102273.94
2022-08-29T03:33:42.124Z,102273.16
2022-08-29T03:36:14.084Z,102273.16
2022-08-29T03:38:42.802Z,102269.72
2022-08-29T03:41:10.144Z,102274.13
2022-08-29T03:43:37.078Z,102274.19
2022-08-29T03:46:04.240Z,102273.31
2022-08-29T03:48:33.516Z,102277.81
2022-08-29T03:51:00.487Z,102276.94
2022-08-29T03:53:27.585Z,102274.25
2022-08-29T03:55:54.653Z,102282.25
2022-08-29T03:58:21.869Z,102282.25
2022-08-29T04:00:48.765Z,102280.47
2022-08-29T04:03:15.695Z,102275.19
2022-08-29T04:05:42.725Z,102280.53
2022-08-29T04:08:09.775Z,102272.53
2022-08-29T04:10:38.663Z,102274.31
2022-08-29T04:13:08.091Z,102283.19
2022-08-29T04:15:36.061Z,102277.94
2022-08-29T04:18:06.816Z,102275.28
2022-08-29T04:20:38.145Z,102283.28
2022-08-29T04:23:06.315Z,102277.06
2022-08-29T04:25:37.625Z,102285.06
2022-08-29T04:28:11.761Z,102279.72
2022-08-29T04:30:40.152Z,102277.06
2022-08-29T04:33:07.461Z,102278.94
2022-08-29T04:35:35.854Z,102285.13
2022-08-29T04:38:02.864Z,102278.94
2022-08-29T04:40:29.902Z,102278.81
2022-08-29T04:42:58.393Z,102278.81
2022-08-29T04:45:26.328Z,102284.84
2022-08-29T04:47:53.243Z,102283.91
2022-08-29T04:50:23.099Z,102291.91
2022-08-29T04:52:52.578Z,102291.81
2022-08-29T04:55:22.729Z,102298.00
2022-08-29T04:57:53.542Z,102294.47
2022-08-29T05:00:25.109Z,102297.91
2022-08-29T05:02:52.057Z,102299.66
2022-08-29T05:05:21.756Z,102297.09
2022-08-29T05:07:48.620Z,102303.25
2022-08-29T05:10:19.345Z,102316.50
2022-08-29T05:12:46.659Z,102310.25
2022-08-29T05:15:14.557Z,102310.94
2022-08-29T05:17:41.574Z,102327.72
2022-08-29T05:20:09.134Z,102317.78
2022-08-29T05:22:36.637Z,102322.09
2022-08-29T05:25:05.193Z,102321.97
2022-08-29T05:27:32.413Z,102331.56
2022-08-29T05:29:59.759Z,102335.06
2022-08-29T05:32:26.675Z,102334.34
2022-08-29T05:34:53.632Z,102331.56
2022-08-29T05:37:21.164Z,102343.78
2022-08-29T05:39:49.258Z,102340.97
2022-08-29T05:42:19.618Z,102341.09
2022-08-29T05:44:47.041Z,102342.75
2022-08-29T05:47:16.089Z,102346.28
2022-08-29T05:49:44.574Z,102346.28
2022-08-29T05:52:13.057Z,102341.88
2022-08-29T05:54:42.011Z,102344.88
2022-08-29T05:57:14.194Z,102347.44
2022-08-29T05:59:43.730Z,102350.84
2022-08-29T06:02:12.186Z,102348.19
2022-08-29T06:04:40.531Z,102349.81
2022-08-29T06:07:09.149Z,102353.38
2022-08-29T06:09:38.549Z,102356.88
2022-08-29T06:12:07.016Z,102349.88
2022-08-29T06:14:34.845Z,102358.03
2022-08-29T06:17:02.464Z,102363.44
2022-08-29T06:19:34.970Z,102358.09
2022-08-29T06:22:09.778Z,102350.13
2022-08-29T06:24:39.147Z,102342.84
2022-08-29T06:27:06.563Z,102348.09
2022-08-29T06:29:36.257Z,102349.00
2022-08-29T06:32:09.874Z,102349.97
2022-08-29T06:34:36.882Z,102350.75
2022-08-29T06:37:03.962Z,102348.19
2022-08-29T06:39:30.901Z,102347.22
2022-08-29T06:41:57.811Z,102347.31
2022-08-29T06:44:25.151Z,102350.03
2022-08-29T06:46:52.095Z,102343.78
2022-08-29T06:49:20.911Z,102344.66
2022-08-29T06:51:57.375Z,102350.91
2022-08-29T06:54:28.175Z,102352.69
2022-08-29T06:56:56.056Z,102358.97
2022-08-29T06:59:22.946Z,102354.66
2022-08-29T07:01:50.076Z,102358.19
2022-08-29T07:04:20.571Z,102364.44
2022-08-29T07:06:49.155Z,102369.00
2022-08-29T07:09:16.670Z,102360.13
2022-08-29T07:11:44.171Z,102365.50
2022-08-29T07:14:12.279Z,102365.59
2022-08-29T07:16:40.913Z,102359.41
2022-08-29T07:19:09.046Z,102358.38
2022-08-29T07:21:36.124Z,102365.38
2022-08-29T07:24:03.757Z,102362.72
2022-08-29T07:26:37.127Z,102368.19
2022-08-29T07:29:14.388Z,102365.50
2022-08-29T07:31:41.870Z,102365.50
2022-08-29T07:34:08.958Z,102363.84
2022-08-29T07:36:36.924Z,102363.81
2022-08-29T07:39:11.278Z,102362.84
2022-08-29T07:41:39.402Z,102370.78
2022-08-29T07:44:06.621Z,102371.56
2022-08-29T07:46:34.098Z,102374.22
2022-08-29T07:49:01.163Z,102368.03
2022-08-29T07:51:28.673Z,102376.03
2022-08-29T07:53:56.668Z,102373.38
2022-08-29T07:56:27.400Z,102370.66
2022-08-29T07:58:55.739Z,102371.53
2022-08-29T08:01:23.958Z,102364.50
2022-08-29T08:03:52.127Z,102369.03
2022-08-29T08:06:22.593Z,102362.00
2022-08-29T08:08:49.865Z,102370.94
2022-08-29T08:11:17.146Z,102370.00
2022-08-29T08:13:44.828Z,102362.94
2022-08-29T08:16:20.652Z,102378.00
2022-08-29T08:18:48.482Z,102368.19
2022-08-29T08:21:15.499Z,102368.19
2022-08-29T08:23:43.227Z,102375.25
2022-08-29T08:26:12.567Z,102376.16
2022-08-29T08:28:40.931Z,102380.56
2022-08-29T08:31:10.208Z,102380.56
2022-08-29T08:33:41.001Z,102386.69
2022-08-29T08:36:25.393Z,102384.03
2022-08-29T08:38:54.035Z,102381.34
2022-08-29T08:41:29.860Z,102393.75
2022-08-29T08:44:03.020Z,102394.63
2022-08-29T08:46:49.586Z,102400.81
2022-08-29T08:49:17.164Z,102403.50
2022-08-29T08:51:51.436Z,102409.66
2022-08-29T08:54:23.989Z,102404.31
2022-08-29T08:57:02.535Z,102404.28
2022-08-29T08:59:35.804Z,102399.88
2022-08-29T09:02:07.819Z,102400.81
2022-08-29T09:04:38.098Z,102390.94
2022-08-29T09:07:39.544Z,102390.94
2022-08-29T09:10:15.104Z,102390.81
2022-08-29T09:12:45.020Z,102387.19
2022-08-29T09:15:24.337Z,102384.47
2022-08-29T09:18:05.544Z,102388.00
2022-08-29T09:20:34.435Z,102382.69
2022-08-29T09:23:42.868Z,102370.19
2022-08-29T09:26:21.921Z,102373.72
2022-08-29T09:28:49.911Z,102374.59
2022-08-29T09:31:35.378Z,102364.84
2022-08-29T09:34:12.353Z,102360.41
2022-08-29T09:36:48.954Z,102371.06
2022-08-29T09:39:18.157Z,102367.47
2022-08-29T09:41:47.886Z,102372.81
2022-08-29T09:44:34.207Z,102369.19
2022-08-29T09:47:09.156Z,102369.19
2022-08-29T09:49:40.229Z,102376.25
2022-08-29T09:52:12.610Z,102372.81
2022-08-29T09:54:39.981Z,102361.19
2022-08-29T09:57:22.800Z,102365.59
2022-08-29T10:00:17.733Z,102371.69
2022-08-29T10:02:50.952Z,102375.22
2022-08-29T10:05:35.178Z,102369.91
2022-08-29T10:08:05.950Z,102368.09
2022-08-29T10:10:36.771Z,102375.16
2022-08-29T10:13:29.003Z,102383.13
2022-08-29T10:16:01.805Z,102377.81
2022-08-29T10:18:58.209Z,102377.81
2022-08-29T10:21:56.112Z,102386.69
2022-08-29T10:24:28.745Z,102388.47
2022-08-29T10:27:17.378Z,102385.75
2022-08-29T10:29:53.291Z,102383.97
2022-08-29T10:33:04.970Z,102381.28
2022-08-29T10:35:43.905Z,102378.63
2022-08-29T10:38:29.129Z,102376.81
2022-08-29T10:41:08.560Z,102381.28
2022-08-29T10:43:40.312Z,102377.66
2022-08-29T10:46:21.688Z,102393.66
2022-08-29T10:49:06.814Z,102376.81
2022-08-29T10:51:54.084Z,102379.56
2022-08-29T10:54:33.240Z,102377.66
2022-08-29T10:57:02.542Z,102375.09
2022-08-29T10:59:29.423Z,102379.56
2022-08-29T11:02:03.883Z,102386.63
2022-08-29T11:04:38.413Z,102374.06
2022-08-29T11:07:30.831Z,102379.41
2022-08-29T11:10:17.961Z,102381.19
2022-08-29T11:13:06.795Z,102386.69
2022-08-29T11:15:48.520Z,102379.69
2022-08-29T11:18:40.137Z,102385.34
2022-08-29T11:21:32.613Z,102386.03
2022-08-29T11:24:03.411Z,102383.31
2022-08-29T11:26:45.079Z,102385.97
2022-08-29T11:29:41.790Z,102377.97
2022-08-29T11:32:21.577Z,102381.50
2022-08-29T11:35:06.424Z,102385.03
2022-08-29T11:37:57.924Z,102389.34
2022-08-29T11:40:47.826Z,102385.03
2022-08-29T11:43:20.841Z,102370.81
2022-08-29T11:45:58.713Z,102377.91
2022-08-29T11:48:48.398Z,102373.44
2022-08-29T11:51:38.286Z,102380.47
2022-08-29T11:54:25.012Z,102367.16
2022-08-29T11:57:12.796Z,102374.22
2022-08-29T11:59:49.167Z,102377.66
2022-08-29T12:02:28.926Z,102381.19
2022-08-29T12:05:28.050Z,102379.41
2022-08-29T12:08:14.359Z,102375.97
2022-08-29T12:10:56.247Z,102376.81
2022-08-29T12:13:45.145Z,102376.75
2022-08-29T12:16:15.316Z,102380.34
2022-08-29T12:18:51.289Z,102375.00
2022-08-29T12:21:36.762Z,102373.22
2022-08-29T12:24:36.275Z,102374.94
2022-08-29T12:27:04.554Z,102371.41
2022-08-29T12:29:44.758Z,102370.47
2022-08-29T12:32:40.156Z,102366.00
2022-08-29T12:35:33.531Z,102365.16
2022-08-29T12:38:28.973Z,102363.28
2022-08-29T12:41:08.483Z,102363.28
2022-08-29T12:43:44.311Z,102359.66
2022-08-29T12:46:51.126Z,102364.97
2022-08-29T12:49:41.334Z,102364.97
2022-08-29T12:52:38.759Z,102360.50
2022-08-29T12:55:43.822Z,102358.81
2022-08-29T12:58:12.971Z,102357.94
2022-08-29T13:00:40.932Z,102350.09
2022-08-29T13:03:14.874Z,102358.09
2022-08-29T13:05:43.392Z,102355.56
2022-08-29T13:08:26.500Z,102351.25
2022-08-29T13:10:59.336Z,102353.19
2022-08-29T13:13:27.728Z,102351.34
2022-08-29T13:16:01.864Z,102348.59
2022-08-29T13:18:31.430Z,102347.72
2022-08-29T13:21:22.740Z,102352.75
2022-08-29T13:24:11.969Z,102351.88
2022-08-29T13:27:03.210Z,102353.53
2022-08-29T13:29:42.959Z,102348.16
2022-08-29T13:32:12.101Z,102349.78
2022-08-29T13:34:58.770Z,102351.44
2022-08-29T13:37:35.835Z,102352.31
2022-08-29T13:40:29.907Z,102347.75
2022-08-29T13:42:57.353Z,102352.13
2022-08-29T13:45:25.535Z,102348.53
2022-08-29T13:48:03.349Z,102337.72
2022-08-29T13:50:31.556Z,102340.41
2022-08-29T13:52:59.345Z,102344.22
2022-08-29T13:55:26.803Z,102334.59
2022-08-29T13:57:55.754Z,102335.31
2022-08-29T14:00:34.932Z,102331.69
2022-08-29T14:03:03.655Z,102338.75
2022-08-29T14:05:31.283Z,102333.34
2022-08-29T14:07:58.202Z,102331.53
2022-08-29T14:10:25.118Z,102333.28
2022-08-29T14:12:52.281Z,102334.13
2022-08-29T14:15:19.322Z,102339.38
2022-08-29T14:17:47.754Z,102335.84
2022-08-29T14:20:16.401Z,102340.25
2022-08-29T14:22:43.837Z,102333.13
2022-08-29T14:25:12.689Z,102334.06
2022-08-29T14:27:40.717Z,102335.84
2022-08-29T14:30:10.899Z,102327.06
2022-08-29T14:32:38.655Z,102325.66
2022-08-29T14:35:06.570Z,102325.81
2022-08-29T14:37:34.437Z,102327.50
2022-08-29T14:40:01.706Z,102325.66
2022-08-29T14:42:30.964Z,102317.56
2022-08-29T14:44:57.910Z,102327.38
2022-08-29T14:47:24.897Z,102317.72
2022-08-29T14:49:51.890Z,102315.28
2022-08-29T14:52:18.953Z,102318.75
2022-08-29T14:54:46.075Z,102310.66
2022-08-29T14:57:13.211Z,102314.19
2022-08-29T14:59:41.163Z,102316.84
2022-08-29T15:02:10.278Z,102319.53
2022-08-29T15:04:38.017Z,102315.94
2022-08-29T15:07:06.744Z,102317.56
2022-08-29T15:09:34.248Z,102316.72
2022-08-29T15:12:01.592Z,102313.13
2022-08-29T15:14:28.513Z,102311.31
2022-08-29T15:16:55.488Z,102310.34
2022-08-29T15:20:31.625Z,102312.09
2022-08-29T15:22:10.547Z,102312.00
2022-08-29T15:24:38.475Z,102303.06
2022-08-29T15:27:06.072Z,102296.81
2022-08-29T15:29:34.621Z,102295.94
2022-08-29T15:32:01.556Z,102294.16
2022-08-29T15:34:29.722Z,102301.19
2022-08-29T15:36:57.753Z,102297.66
2022-08-29T15:39:27.462Z,102305.75
2022-08-29T15:42:00.332Z,102312.00
2022-08-29T15:44:30.267Z,102310.22
2022-08-29T15:46:58.508Z,102303.13
2022-08-29T15:49:27.258Z,102314.91
2022-08-29T15:51:54.792Z,102316.84
2022-08-29T15:54:23.486Z,102308.06
2022-08-29T15:56:50.841Z,102313.56
2022-08-29T15:59:18.634Z,102312.88
2022-08-29T16:01:48.804Z,102312.88
2022-08-29T16:04:18.923Z,102321.78
2022-08-29T16:06:46.280Z,102323.72
2022-08-29T16:09:15.400Z,102320.03
2022-08-29T16:11:44.886Z,102315.34
2022-08-29T16:16:59.998Z,102318.88
2022-08-29T16:19:27.245Z,102319.75
2022-08-29T16:21:54.441Z,102317.97
2022-08-29T16:24:23.288Z,102319.75
2022-08-29T16:26:50.304Z,102312.69
2022-08-29T16:29:26.277Z,102316.22
2022-08-29T16:31:57.881Z,102319.84
2022-08-29T16:34:27.027Z,102315.44
2022-08-29T16:36:58.811Z,102316.31
2022-08-29T16:39:26.947Z,102317.19
2022-08-29T16:41:54.746Z,102319.03
2022-08-29T16:44:22.442Z,102311.03
2022-08-29T16:46:49.554Z,102312.00
2022-08-29T16:49:17.036Z,102308.38
2022-08-29T16:51:44.030Z,102314.56
2022-08-29T16:54:12.959Z,102308.38
2022-08-29T16:56:40.150Z,102310.25
2022-08-29T16:59:07.708Z,102305.94
2022-08-29T17:01:45.334Z,102310.25
2022-08-29T17:04:16.061Z,102306.03
2022-08-29T17:06:43.580Z,102317.63
2022-08-29T17:09:10.679Z,102319.56
2022-08-29T17:11:38.479Z,102317.03
2022-08-29T17:14:06.547Z,102322.22
2022-08-29T17:16:34.753Z,102321.22
2022-08-29T17:19:01.856Z,102326.41
2022-08-29T17:21:29.001Z,102319.34
2022-08-29T17:23:56.173Z,102319.34
2022-08-29T17:26:24.105Z,102320.19
2022-08-29T17:28:51.438Z,102323.72
2022-08-29T17:31:19.367Z,102327.97
2022-08-29T17:33:47.030Z,102328.84
2022-08-29T17:36:14.756Z,102325.47
2022-08-29T17:38:45.368Z,102328.13
2022-08-29T17:41:17.258Z,102338.78
2022-08-29T17:43:47.732Z,102339.72
2022-08-29T17:46:17.134Z,102338.94
2022-08-29T17:48:45.125Z,102335.34
2022-08-29T17:51:12.583Z,102332.69
2022-08-29T17:53:43.560Z,102336.34
2022-08-29T17:56:21.735Z,102348.72
2022-08-29T17:58:49.024Z,102337.19
2022-08-29T18:01:17.178Z,102344.25
2022-08-29T18:03:46.988Z,102339.81
2022-08-29T18:06:17.116Z,102346.84
2022-08-29T18:08:48.359Z,102349.59
2022-08-29T18:11:17.848Z,102349.59
2022-08-29T18:13:45.802Z,102356.66
2022-08-29T18:16:13.624Z,102354.94
2022-08-29T18:18:45.919Z,102366.59
2022-08-29T18:21:18.182Z,102362.00
2022-08-29T18:23:46.523Z,102368.09
2022-08-29T18:26:16.353Z,102369.81
2022-08-29T18:28:44.232Z,102372.44
2022-08-29T18:31:11.832Z,102368.88
2022-08-29T18:34:00.234Z,102359.25
2022-08-29T18:36:29.227Z,102365.50
2022-08-29T18:38:56.677Z,102362.00
2022-08-29T18:41:26.388Z,102363.69
2022-08-29T18:43:54.278Z,102366.38
2022-08-29T18:46:22.154Z,102362.78
2022-08-29T18:48:49.451Z,102372.34
2022-08-29T18:51:17.098Z,102370.53
2022-08-29T18:53:44.749Z,102371.31
2022-08-29T18:56:12.327Z,102369.47
2022-08-29T18:58:41.788Z,102385.53
2022-08-29T19:01:14.164Z,102382.06
2022-08-29T19:03:42.283Z,102377.53
2022-08-29T19:06:11.017Z,102378.38
2022-08-29T19:08:39.614Z,102384.59
2022-08-29T19:11:08.525Z,102381.84
2022-08-29T19:13:36.584Z,102389.69
2022-08-29T19:16:07.161Z,102382.56
2022-08-29T19:18:35.723Z,102395.88
2022-08-29T19:21:04.366Z,102399.44
2022-08-29T19:23:35.862Z,102407.34
2022-08-29T19:26:07.928Z,102401.13
2022-08-29T19:28:35.702Z,102402.88
2022-08-29T19:31:04.299Z,102410.00
2022-08-29T19:33:32.624Z,102410.78
2022-08-29T19:36:01.296Z,102414.25
2022-08-29T19:38:30.665Z,102414.25
2022-08-29T19:40:59.869Z,102409.84
2022-08-29T19:43:31.350Z,102422.25
2022-08-29T19:46:04.058Z,102420.44
2022-08-29T19:48:31.838Z,102421.16
2022-08-29T19:50:59.086Z,102422.91
2022-08-29T19:53:27.119Z,102424.78
2022-08-29T19:55:57.352Z,102425.63
2022-08-29T19:58:31.589Z,102416.56
2022-08-29T20:01:07.003Z,102415.56
2022-08-29T20:03:37.622Z,102423.56
2022-08-29T20:06:07.749Z,102427.09
2022-08-29T20:08:44.282Z,102422.63
2022-08-29T20:11:20.518Z,102433.28
2022-08-29T20:13:51.178Z,102432.50
2022-08-29T20:16:24.735Z,102436.03
2022-08-29T20:18:54.026Z,102435.88
2022-08-29T20:21:26.208Z,102435.03
2022-08-29T20:23:58.409Z,102440.28
2022-08-29T20:26:28.890Z,102440.34
2022-08-29T20:28:59.163Z,102449.28
2022-08-29T20:31:27.894Z,102444.97
2022-08-29T20:33:57.025Z,102444.09
2022-08-29T20:36:44.381Z,102431.78
2022-08-29T20:39:15.205Z,102433.56
2022-08-29T20:41:49.657Z,102431.81
2022-08-29T20:44:23.434Z,102438.91
2022-08-29T20:46:52.925Z,102435.44
2022-08-29T20:49:24.945Z,102437.25
2022-08-29T20:51:53.555Z,102439.97
2022-08-29T20:54:25.187Z,102442.63
2022-08-29T20:56:57.568Z,102442.56
2022-08-29T20:59:27.280Z,102446.16
2022-08-29T21:01:56.092Z,102446.13
2022-08-29T21:04:43.895Z,102449.69
2022-08-29T21:07:14.714Z,102446.25
2022-08-29T21:09:46.375Z,102449.13
2022-08-29T21:12:15.552Z,102452.75
2022-08-29T21:14:46.834Z,102448.41
2022-08-29T21:17:18.060Z,102440.47
2022-08-29T21:19:46.407Z,102445.91
2022-08-29T21:22:15.728Z,102444.16
2022-08-29T21:24:45.096Z,102445.91
2022-08-29T21:27:12.736Z,102446.91
2022-08-29T21:29:41.849Z,102445.25
2022-08-29T21:32:09.683Z,102455.09
2022-08-29T21:34:38.321Z,102458.72
2022-08-29T21:37:06.096Z,102454.31
2022-08-29T21:39:34.816Z,102455.28
2022-08-29T21:42:03.162Z,102452.75
2022-08-29T21:44:32.806Z,102456.34
2022-08-29T21:47:01.343Z,102461.66
2022-08-29T21:49:33.468Z,102462.63
2022-08-29T21:52:03.521Z,102460.88
2022-08-29T21:54:31.250Z,102452.09
2022-08-29T21:56:58.833Z,102457.44
2022-08-29T21:59:28.750Z,102458.34
2022-08-29T22:01:56.653Z,102463.69
2022-08-29T22:04:28.727Z,102462.81
2022-08-29T22:06:59.534Z,102458.22
2022-08-29T22:09:30.279Z,102467.94
2022-08-29T22:11:59.234Z,102460.94
2022-08-29T22:14:48.320Z,102466.34
2022-08-29T22:17:17.018Z,102466.44
2022-08-29T22:19:44.400Z,102463.69
2022-08-29T22:22:12.602Z,102466.44
2022-08-29T22:24:40.179Z,102471.75
2022-08-29T22:27:08.148Z,102462.09
2022-08-29T22:29:36.851Z,102469.28
2022-08-29T22:32:05.132Z,102468.41
2022-08-29T22:34:33.167Z,102468.50
2022-08-29T22:37:00.792Z,102464.09
2022-08-29T22:39:31.065Z,102473.03
2022-08-29T22:41:58.674Z,102456.19
2022-08-29T22:47:13.892Z,102457.06
2022-08-29T22:49:41.195Z,102457.97
2022-08-29T22:52:11.492Z,102454.53
2022-08-29T22:54:39.338Z,102453.66
2022-08-29T22:57:12.569Z,102457.31
2022-08-29T22:59:40.777Z,102456.41
2022-08-29T23:02:09.002Z,102460.91
2022-08-29T23:04:36.217Z,102455.59
2022-08-29T23:07:04.607Z,102463.56
2022-08-29T23:09:35.650Z,102464.53
2022-08-29T23:12:04.213Z,102467.25
2022-08-29T23:14:32.749Z,102464.66
2022-08-29T23:16:59.961Z,102466.47
2022-08-29T23:19:27.112Z,102465.59
2022-08-29T23:21:55.878Z,102460.34
2022-08-29T23:24:24.579Z,102464.78
2022-08-29T23:26:51.677Z,102459.47
2022-08-29T23:29:19.804Z,102471.88
2022-08-29T23:31:46.830Z,102473.72
2022-08-29T23:34:14.279Z,102473.72
2022-08-29T23:36:41.295Z,102472.00
2022-08-29T23:39:08.587Z,102475.59
2022-08-29T23:41:36.382Z,102468.53
2022-08-29T23:44:04.427Z,102468.47
2022-08-29T23:46:31.607Z,102464.06
2022-08-29T23:48:58.734Z,102465.88
2022-08-29T23:51:26.171Z,102465.00
2022-08-29T23:53:53.344Z,102462.41
2022-08-29T23:56:22.117Z,102464.22
2022-08-29T23:58:49.280Z,102464.22
